createdAt,value
2023-05-19T00:00:00.610Z,13.75
2023-05-19T00:02:30.154Z,13.92
2023-05-19T00:04:58.153Z,13.67
2023-05-19T00:07:30.361Z,13.85
2023-05-19T00:09:58.448Z,13.79
2023-05-19T00:12:26.229Z,14.03
2023-05-19T00:14:54.281Z,13.77
2023-05-19T00:17:22.223Z,13.79
2023-05-19T00:19:50.956Z,13.47
2023-05-19T00:22:18.266Z,13.57
2023-05-19T00:24:45.620Z,13.41
2023-05-19T00:27:13.018Z,13.64
2023-05-19T00:29:40.318Z,13.25
2023-05-19T00:32:07.732Z,13.48
2023-05-19T00:34:35.249Z,13.07
2023-05-19T00:37:04.107Z,13.29
2023-05-19T00:39:31.476Z,13.35
2023-05-19T00:41:58.954Z,13.03
2023-05-19T00:44:26.386Z,13.13
2023-05-19T00:46:53.816Z,12.74
2023-05-19T00:49:21.223Z,12.94
2023-05-19T00:51:49.085Z,12.84
2023-05-19T00:54:18.587Z,12.91
2023-05-19T00:56:45.960Z,13.37
2023-05-19T00:59:13.329Z,13.39
2023-05-19T01:01:41.567Z,13.33
2023-05-19T01:04:09.070Z,13.00
2023-05-19T01:06:36.584Z,12.95
2023-05-19T01:09:04.358Z,12.87
2023-05-19T01:11:33.000Z,12.48
2023-05-19T01:14:00.640Z,12.73
2023-05-19T01:16:34.898Z,12.72
2023-05-19T01:19:14.242Z,12.24
2023-05-19T01:22:18.672Z,12.37
2023-05-19T01:25:31.567Z,12.37
2023-05-19T01:28:25.300Z,12.44
2023-05-19T01:30:55.484Z,12.16
2023-05-19T01:33:25.660Z,12.46
2023-05-19T01:35:55.343Z,12.45
2023-05-19T01:38:25.787Z,12.75
2023-05-19T01:40:55.906Z,12.30
2023-05-19T01:43:26.690Z,12.04
2023-05-19T01:45:56.725Z,12.21
2023-05-19T01:48:26.064Z,12.25
2023-05-19T01:50:53.466Z,12.53
2023-05-19T01:53:20.864Z,12.43
2023-05-19T01:55:50.592Z,12.69
2023-05-19T01:58:31.067Z,12.14
2023-05-19T02:01:08.515Z,12.34
2023-05-19T02:03:53.966Z,12.10
2023-05-19T02:06:36.958Z,12.29
2023-05-19T02:09:09.544Z,12.21
2023-05-19T02:11:39.803Z,12.48
2023-05-19T02:14:13.605Z,12.49
2023-05-19T02:16:45.836Z,12.61
2023-05-19T02:19:21.502Z,12.70
2023-05-19T02:21:49.006Z,12.34
2023-05-19T02:24:16.320Z,12.19
2023-05-19T02:26:43.957Z,12.13
2023-05-19T02:29:11.311Z,12.01
2023-05-19T02:31:38.774Z,12.22
2023-05-19T02:34:08.235Z,12.03
2023-05-19T02:36:39.602Z,12.23
2023-05-19T02:39:07.156Z,11.86
2023-05-19T02:41:34.622Z,11.99
2023-05-19T02:44:01.948Z,11.97
2023-05-19T02:46:29.466Z,12.00
2023-05-19T02:48:56.947Z,11.94
2023-05-19T02:51:25.606Z,11.79
2023-05-19T02:53:53.029Z,11.92
2023-05-19T02:56:20.331Z,11.95
2023-05-19T02:58:47.776Z,11.87
2023-05-19T03:01:15.237Z,11.71
2023-05-19T03:03:42.805Z,11.97
2023-05-19T03:06:10.176Z,11.64
2023-05-19T03:08:41.517Z,11.52
2023-05-19T03:11:09.830Z,11.50
2023-05-19T03:13:37.115Z,11.52
2023-05-19T03:16:04.984Z,11.54
2023-05-19T03:18:32.307Z,11.39
2023-05-19T03:21:00.055Z,10.86
2023-05-19T03:23:27.380Z,11.18
2023-05-19T03:25:56.103Z,11.19
2023-05-19T03:28:23.745Z,11.15
2023-05-19T03:30:51.136Z,11.46
2023-05-19T03:33:22.014Z,11.57
2023-05-19T03:35:49.520Z,11.54
2023-05-19T03:38:17.426Z,11.67
2023-05-19T03:40:52.147Z,11.42
2023-05-19T03:43:20.908Z,11.82
2023-05-19T03:45:54.108Z,11.66
2023-05-19T03:48:39.844Z,12.04
2023-05-19T03:51:27.462Z,12.00
2023-05-19T03:53:57.964Z,11.51
2023-05-19T03:56:25.402Z,11.80
2023-05-19T03:58:54.083Z,11.74
2023-05-19T04:01:21.628Z,11.86
2023-05-19T04:03:49.042Z,11.34
2023-05-19T04:06:16.371Z,11.63
2023-05-19T04:08:43.748Z,11.84
2023-05-19T04:11:11.529Z,11.63
2023-05-19T04:13:39.060Z,11.53
2023-05-19T04:16:08.154Z,11.77
2023-05-19T04:18:35.526Z,11.44
2023-05-19T04:21:05.145Z,11.73
2023-05-19T04:23:32.711Z,11.60
2023-05-19T04:26:00.395Z,12.04
2023-05-19T04:28:27.724Z,11.93
2023-05-19T04:30:56.182Z,12.20
2023-05-19T04:33:25.123Z,12.04
2023-05-19T04:35:52.545Z,12.27
2023-05-19T04:38:19.993Z,12.46
2023-05-19T04:40:48.889Z,12.48
2023-05-19T04:43:16.583Z,12.14
2023-05-19T04:45:43.972Z,11.96
2023-05-19T04:48:12.515Z,12.28
2023-05-19T04:50:41.210Z,12.05
2023-05-19T04:53:08.875Z,12.16
2023-05-19T04:55:36.694Z,12.36
2023-05-19T04:58:04.113Z,12.33
2023-05-19T05:00:32.074Z,12.42
2023-05-19T05:03:03.399Z,12.45
2023-05-19T05:05:30.879Z,12.84
2023-05-19T05:07:59.585Z,12.54
2023-05-19T05:10:29.981Z,12.38
2023-05-19T05:12:57.966Z,12.67
2023-05-19T05:15:25.861Z,12.87
2023-05-19T05:17:54.156Z,12.63
2023-05-19T05:20:23.060Z,13.07
2023-05-19T05:22:51.755Z,12.69
2023-05-19T05:25:21.888Z,12.82
2023-05-19T05:27:50.095Z,12.65
2023-05-19T05:30:17.398Z,12.78
2023-05-19T05:32:46.180Z,12.96
2023-05-19T05:35:27.623Z,13.07
2023-05-19T05:37:55.308Z,13.11
2023-05-19T05:40:23.989Z,13.50
2023-05-19T05:42:52.321Z,13.27
2023-05-19T05:45:21.631Z,13.26
2023-05-19T05:47:50.538Z,13.37
2023-05-19T05:50:18.729Z,13.35
2023-05-19T05:52:47.249Z,13.78
2023-05-19T05:55:17.204Z,14.37
2023-05-19T05:57:48.931Z,14.01
2023-05-19T06:00:17.273Z,14.14
2023-05-19T06:02:52.233Z,14.39
2023-05-19T06:05:20.911Z,14.40
2023-05-19T06:07:49.294Z,14.38
2023-05-19T06:10:24.645Z,14.64
2023-05-19T06:12:53.716Z,14.61
2023-05-19T06:15:23.361Z,14.44
2023-05-19T06:18:04.209Z,14.81
2023-05-19T06:20:31.810Z,14.69
2023-05-19T06:23:00.735Z,14.83
2023-05-19T06:25:29.338Z,14.88
2023-05-19T06:27:59.203Z,15.20
2023-05-19T06:30:26.626Z,15.53
2023-05-19T06:33:03.139Z,15.83
2023-05-19T06:35:30.829Z,15.53
2023-05-19T06:37:58.507Z,15.59
2023-05-19T06:40:26.073Z,15.74
2023-05-19T06:42:54.524Z,16.01
2023-05-19T06:45:43.842Z,16.04
2023-05-19T06:48:12.018Z,15.81
2023-05-19T06:50:39.548Z,15.66
2023-05-19T06:53:07.464Z,16.37
2023-05-19T06:55:39.203Z,16.94
2023-05-19T06:58:15.831Z,16.62
2023-05-19T07:00:44.651Z,16.47
2023-05-19T07:03:15.300Z,16.91
2023-05-19T07:05:42.991Z,17.10
2023-05-19T07:08:11.710Z,17.15
2023-05-19T07:10:40.061Z,17.26
2023-05-19T07:13:12.073Z,17.75
2023-05-19T07:15:39.436Z,17.58
2023-05-19T07:18:08.219Z,17.77
2023-05-19T07:20:36.373Z,17.61
2023-05-19T07:23:04.624Z,17.89
2023-05-19T07:25:31.985Z,17.86
2023-05-19T07:28:00.458Z,17.50
2023-05-19T07:30:28.618Z,17.75
2023-05-19T07:32:56.331Z,18.42
2023-05-19T07:35:26.682Z,18.25
2023-05-19T07:37:53.973Z,18.02
2023-05-19T07:40:21.281Z,17.85
2023-05-19T07:42:49.894Z,17.85
2023-05-19T07:45:17.312Z,17.54
2023-05-19T07:47:44.640Z,17.80
2023-05-19T07:50:12.092Z,18.38
2023-05-19T07:52:40.719Z,18.04
2023-05-19T07:55:08.226Z,18.40
2023-05-19T07:57:35.644Z,18.23
2023-05-19T08:00:03.296Z,18.47
2023-05-19T08:02:39.136Z,18.68
2023-05-19T08:05:07.851Z,18.65
2023-05-19T08:07:35.245Z,18.62
2023-05-19T08:10:04.609Z,19.06
2023-05-19T08:12:31.902Z,19.03
2023-05-19T08:15:01.423Z,18.49
2023-05-19T08:17:29.344Z,19.19
2023-05-19T08:19:56.732Z,19.46
2023-05-19T08:22:24.059Z,19.62
2023-05-19T08:24:51.887Z,19.41
2023-05-19T08:27:20.687Z,19.72
2023-05-19T08:29:48.106Z,19.68
2023-05-19T08:32:15.434Z,19.95
2023-05-19T08:34:43.528Z,19.66
2023-05-19T08:37:10.767Z,19.95
2023-05-19T08:39:38.301Z,19.96
2023-05-19T08:42:06.335Z,19.86
2023-05-19T08:44:38.173Z,20.78
2023-05-19T08:47:06.165Z,20.21
2023-05-19T08:49:43.925Z,19.92
2023-05-19T08:52:22.442Z,20.18
2023-05-19T08:54:54.151Z,20.05
2023-05-19T08:57:22.962Z,19.91
2023-05-19T08:59:53.262Z,20.12
2023-05-19T09:02:22.171Z,20.59
2023-05-19T09:04:49.713Z,20.06
2023-05-19T09:07:18.350Z,20.76
2023-05-19T09:09:45.813Z,20.89
2023-05-19T09:12:14.183Z,21.32
2023-05-19T09:14:41.898Z,21.32
2023-05-19T09:17:10.681Z,21.43
2023-05-19T09:19:43.054Z,21.77
2023-05-19T09:22:12.050Z,22.42
2023-05-19T09:24:39.324Z,22.78
2023-05-19T09:27:06.624Z,23.50
2023-05-19T09:29:34.055Z,24.95
2023-05-19T09:32:08.714Z,25.12
2023-05-19T09:34:41.580Z,25.54
2023-05-19T09:37:12.701Z,26.84
2023-05-19T09:39:40.388Z,27.18
2023-05-19T09:42:07.757Z,24.87
2023-05-19T09:44:35.469Z,23.58
2023-05-19T09:47:03.346Z,25.16
2023-05-19T09:49:30.903Z,25.84
2023-05-19T09:52:02.340Z,25.98
2023-05-19T09:54:33.109Z,27.57
2023-05-19T09:57:02.216Z,26.70
2023-05-19T09:59:33.019Z,26.11
2023-05-19T10:02:02.529Z,26.34
2023-05-19T10:04:31.393Z,24.49
2023-05-19T10:07:01.478Z,24.22
2023-05-19T10:09:29.668Z,24.06
2023-05-19T10:11:58.476Z,25.56
2023-05-19T10:14:27.668Z,24.54
2023-05-19T10:16:57.050Z,24.67
2023-05-19T10:19:25.831Z,24.53
2023-05-19T10:21:54.344Z,25.16
2023-05-19T10:24:23.125Z,26.28
2023-05-19T10:26:55.945Z,25.92
2023-05-19T10:29:27.379Z,24.93
2023-05-19T10:32:02.461Z,25.10
2023-05-19T10:35:00.553Z,25.91
2023-05-19T10:37:36.704Z,27.19
2023-05-19T10:40:12.281Z,28.09
2023-05-19T10:42:51.717Z,28.75
2023-05-19T10:45:22.313Z,27.96
2023-05-19T10:47:51.122Z,28.53
2023-05-19T10:50:22.357Z,27.46
2023-05-19T10:52:53.508Z,26.67
2023-05-19T10:55:46.200Z,25.24
2023-05-19T10:58:13.599Z,25.23
2023-05-19T11:00:40.965Z,25.35
2023-05-19T11:03:15.614Z,25.77
2023-05-19T11:05:43.115Z,24.08
2023-05-19T11:08:12.211Z,25.64
2023-05-19T11:10:43.905Z,27.92
2023-05-19T11:13:20.491Z,27.95
2023-05-19T11:15:47.891Z,29.15
2023-05-19T11:18:15.942Z,29.62
2023-05-19T11:20:43.690Z,28.18
2023-05-19T11:23:15.719Z,26.90
2023-05-19T11:25:46.306Z,24.80
2023-05-19T11:28:16.855Z,24.62
2023-05-19T11:30:45.802Z,23.92
2023-05-19T11:33:13.918Z,23.84
2023-05-19T11:35:43.512Z,23.87
2023-05-19T11:38:11.438Z,24.31
2023-05-19T11:40:41.911Z,23.20
2023-05-19T11:43:10.801Z,24.01
2023-05-19T11:45:39.280Z,26.19
2023-05-19T11:48:07.096Z,27.13
2023-05-19T11:50:35.894Z,28.14
2023-05-19T11:53:04.404Z,28.08
2023-05-19T11:55:32.379Z,29.28
2023-05-19T11:58:04.703Z,26.90
2023-05-19T12:00:38.321Z,27.42
2023-05-19T12:03:05.964Z,28.91
2023-05-19T12:05:42.053Z,29.12
2023-05-19T12:08:13.268Z,29.07
2023-05-19T12:10:41.185Z,28.45
2023-05-19T12:13:11.592Z,29.23
2023-05-19T12:15:40.297Z,28.46
2023-05-19T12:18:09.988Z,26.88
2023-05-19T12:20:37.664Z,25.08
2023-05-19T12:23:05.653Z,25.28
2023-05-19T12:25:35.899Z,26.55
2023-05-19T12:28:03.823Z,27.78
2023-05-19T12:30:32.601Z,28.73
2023-05-19T12:33:03.510Z,29.81
2023-05-19T12:35:32.248Z,30.79
2023-05-19T12:38:03.427Z,30.20
2023-05-19T12:40:31.476Z,29.00
2023-05-19T12:42:59.343Z,27.78
2023-05-19T12:45:27.026Z,26.94
2023-05-19T12:47:54.767Z,27.83
2023-05-19T12:50:32.883Z,28.76
2023-05-19T12:53:00.562Z,28.90
2023-05-19T12:55:28.013Z,29.12
2023-05-19T12:57:55.417Z,27.73
2023-05-19T13:00:25.200Z,26.09
2023-05-19T13:03:00.468Z,25.07
2023-05-19T13:05:31.417Z,24.97
2023-05-19T13:08:00.624Z,24.96
2023-05-19T13:10:28.749Z,25.35
2023-05-19T13:12:59.477Z,26.26
2023-05-19T13:15:30.219Z,27.00
2023-05-19T13:17:57.722Z,27.32
2023-05-19T13:20:27.675Z,27.25
2023-05-19T13:22:57.218Z,26.75
2023-05-19T13:25:24.815Z,26.21
2023-05-19T13:27:52.694Z,26.04
2023-05-19T13:30:20.558Z,26.66
2023-05-19T13:32:48.348Z,28.48
2023-05-19T13:35:15.864Z,29.85
2023-05-19T13:37:43.355Z,30.89
2023-05-19T13:40:13.771Z,31.02
2023-05-19T13:42:41.471Z,31.19
2023-05-19T13:45:09.708Z,31.06
2023-05-19T13:47:37.475Z,29.84
2023-05-19T13:50:05.788Z,27.79
2023-05-19T13:52:33.384Z,27.35
2023-05-19T13:55:00.599Z,26.62
2023-05-19T13:57:29.280Z,27.30
2023-05-19T14:00:01.630Z,27.90
2023-05-19T14:02:39.335Z,27.70
2023-05-19T14:05:07.720Z,26.62
2023-05-19T14:07:35.494Z,27.41
2023-05-19T14:10:04.154Z,28.49
2023-05-19T14:12:41.470Z,28.14
2023-05-19T14:15:14.975Z,27.60
2023-05-19T14:17:42.277Z,29.83
2023-05-19T14:20:10.607Z,27.21
2023-05-19T14:22:37.897Z,26.45
2023-05-19T14:25:06.268Z,25.90
2023-05-19T14:27:34.955Z,25.61
2023-05-19T14:30:02.586Z,25.71
2023-05-19T14:32:30.620Z,26.64
2023-05-19T14:34:58.307Z,25.41
2023-05-19T14:37:25.603Z,25.06
2023-05-19T14:39:52.973Z,24.39
2023-05-19T14:42:20.324Z,24.41
2023-05-19T14:44:49.083Z,24.19
2023-05-19T14:47:16.462Z,24.22
2023-05-19T14:49:43.942Z,24.25
2023-05-19T14:52:11.316Z,24.36
2023-05-19T14:54:38.861Z,24.62
2023-05-19T14:57:06.427Z,24.26
2023-05-19T14:59:50.952Z,24.65
2023-05-19T15:02:19.959Z,25.52
2023-05-19T15:04:47.325Z,26.50
2023-05-19T15:07:14.637Z,27.64
2023-05-19T15:09:42.120Z,27.63
2023-05-19T15:12:09.536Z,26.04
2023-05-19T15:14:36.957Z,25.29
2023-05-19T15:17:04.708Z,25.09
2023-05-19T15:19:33.585Z,27.07
2023-05-19T15:22:01.072Z,29.98
2023-05-19T15:24:28.415Z,27.51
2023-05-19T15:26:58.380Z,28.48
2023-05-19T15:29:25.706Z,28.33
2023-05-19T15:31:53.084Z,27.31
2023-05-19T15:34:21.057Z,26.44
2023-05-19T15:36:49.757Z,26.23
2023-05-19T15:39:17.112Z,26.11
2023-05-19T15:41:44.547Z,26.03
2023-05-19T15:44:11.891Z,25.88
2023-05-19T15:46:39.822Z,25.73
2023-05-19T15:49:07.176Z,25.66
2023-05-19T15:51:34.935Z,26.53
2023-05-19T15:54:03.819Z,26.01
2023-05-19T15:56:31.160Z,25.51
2023-05-19T15:58:58.482Z,25.29
2023-05-19T16:01:25.928Z,25.36
2023-05-19T16:03:53.393Z,24.74
2023-05-19T16:06:21.167Z,24.83
2023-05-19T16:08:48.441Z,24.42
2023-05-19T16:11:17.185Z,25.91
2023-05-19T16:13:46.716Z,28.15
2023-05-19T16:16:14.191Z,30.11
2023-05-19T16:18:41.504Z,30.02
2023-05-19T16:21:08.889Z,29.73
2023-05-19T16:23:36.267Z,27.58
2023-05-19T16:26:03.614Z,27.83
2023-05-19T16:28:32.252Z,28.19
2023-05-19T16:31:00.098Z,27.22
2023-05-19T16:33:27.812Z,27.29
2023-05-19T16:35:55.738Z,27.47
2023-05-19T16:38:23.050Z,26.29
2023-05-19T16:40:50.405Z,26.33
2023-05-19T16:43:17.693Z,25.65
2023-05-19T16:45:46.427Z,24.64
2023-05-19T16:48:13.866Z,24.32
2023-05-19T16:50:41.353Z,24.93
2023-05-19T16:53:08.742Z,25.11
2023-05-19T16:55:40.431Z,24.74
2023-05-19T16:58:09.152Z,24.51
2023-05-19T17:00:36.469Z,24.31
2023-05-19T17:03:05.819Z,24.22
2023-05-19T17:05:33.134Z,23.94
2023-05-19T17:08:00.738Z,24.18
2023-05-19T17:10:28.018Z,23.71
2023-05-19T17:12:56.378Z,23.65
2023-05-19T17:15:23.819Z,23.35
2023-05-19T17:18:00.319Z,23.72
2023-05-19T17:20:29.298Z,24.68
2023-05-19T17:22:59.148Z,25.65
2023-05-19T17:25:26.511Z,25.41
2023-05-19T17:27:53.827Z,25.62
2023-05-19T17:30:21.245Z,25.58
2023-05-19T17:32:48.660Z,26.24
2023-05-19T17:35:16.231Z,26.83
2023-05-19T17:37:45.022Z,26.98
2023-05-19T17:40:13.616Z,26.47
2023-05-19T17:42:40.968Z,27.01
2023-05-19T17:45:09.696Z,26.08
2023-05-19T17:47:37.175Z,26.76
2023-05-19T17:50:05.508Z,27.02
2023-05-19T17:52:33.592Z,26.99
2023-05-19T17:55:02.973Z,26.33
2023-05-19T17:57:31.307Z,25.31
2023-05-19T17:59:59.385Z,24.80
2023-05-19T18:02:27.288Z,24.75
2023-05-19T18:04:55.315Z,24.04
2023-05-19T18:07:24.961Z,23.80
2023-05-19T18:09:55.167Z,23.73
2023-05-19T18:12:24.684Z,23.18
2023-05-19T18:14:52.380Z,23.88
2023-05-19T18:17:19.937Z,23.83
2023-05-19T18:19:47.540Z,23.36
2023-05-19T18:22:15.330Z,23.19
2023-05-19T18:24:42.676Z,23.16
2023-05-19T18:27:10.016Z,23.18
2023-05-19T18:29:39.469Z,22.64
2023-05-19T18:32:07.989Z,22.44
2023-05-19T18:34:35.503Z,22.79
2023-05-19T18:37:02.770Z,22.50
2023-05-19T18:39:30.090Z,22.29
2023-05-19T18:41:57.400Z,21.74
2023-05-19T18:44:24.886Z,21.71
2023-05-19T18:46:53.513Z,22.27
2023-05-19T18:49:20.877Z,21.86
2023-05-19T18:51:48.500Z,21.74
2023-05-19T18:54:16.174Z,21.50
2023-05-19T18:56:43.604Z,21.32
2023-05-19T18:59:10.933Z,21.35
2023-05-19T19:01:38.469Z,21.30
2023-05-19T19:04:07.455Z,21.12
2023-05-19T19:06:34.769Z,21.37
2023-05-19T19:09:02.084Z,20.99
2023-05-19T19:11:29.454Z,20.90
2023-05-19T19:13:56.829Z,21.07
2023-05-19T19:16:24.092Z,20.89
2023-05-19T19:18:51.659Z,20.97
2023-05-19T19:21:20.459Z,20.79
2023-05-19T19:23:48.164Z,21.05
2023-05-19T19:26:15.586Z,20.91
2023-05-19T19:28:43.495Z,21.15
2023-05-19T19:31:10.859Z,21.02
2023-05-19T19:33:38.788Z,21.07
2023-05-19T19:36:15.042Z,20.85
2023-05-19T19:38:43.838Z,20.84
2023-05-19T19:41:11.483Z,20.86
2023-05-19T19:43:38.821Z,21.00
2023-05-19T19:46:06.610Z,20.85
2023-05-19T19:48:34.266Z,20.90
2023-05-19T19:51:03.054Z,20.77
2023-05-19T19:53:31.590Z,20.45
2023-05-19T19:56:02.568Z,20.78
2023-05-19T19:58:30.071Z,20.70
2023-05-19T20:01:03.571Z,20.58
2023-05-19T20:03:31.287Z,20.55
2023-05-19T20:05:58.960Z,20.45
2023-05-19T20:08:30.733Z,20.40
2023-05-19T20:10:58.411Z,20.37
2023-05-19T20:13:29.976Z,20.19
2023-05-19T20:15:58.987Z,20.21
2023-05-19T20:18:26.433Z,20.39
2023-05-19T20:20:54.377Z,20.42
2023-05-19T20:23:22.103Z,20.32
2023-05-19T20:26:06.733Z,19.89
2023-05-19T20:28:39.079Z,19.90
2023-05-19T20:31:06.630Z,20.00
2023-05-19T20:33:34.789Z,19.81
2023-05-19T20:36:07.023Z,19.98
2023-05-19T20:38:37.629Z,20.04
2023-05-19T20:41:05.318Z,20.41
2023-05-19T20:43:34.145Z,20.14
2023-05-19T20:46:06.016Z,20.23
2023-05-19T20:48:35.978Z,20.06
2023-05-19T20:51:06.470Z,19.80
2023-05-19T20:53:33.918Z,20.22
2023-05-19T20:56:01.303Z,20.22
2023-05-19T20:58:28.958Z,20.05
2023-05-19T21:00:56.283Z,19.79
2023-05-19T21:03:25.491Z,19.89
2023-05-19T21:05:53.342Z,19.84
2023-05-19T21:08:20.918Z,19.76
2023-05-19T21:10:48.649Z,20.00
2023-05-19T21:13:16.445Z,19.72
2023-05-19T21:15:43.840Z,20.05
2023-05-19T21:18:11.947Z,19.75
2023-05-19T21:20:40.979Z,19.93
2023-05-19T21:23:09.960Z,19.86
2023-05-19T21:25:37.839Z,19.78
2023-05-19T21:28:06.153Z,19.77
2023-05-19T21:30:33.761Z,19.73
2023-05-19T21:33:01.775Z,19.84
2023-05-19T21:35:29.242Z,19.86
2023-05-19T21:38:00.666Z,19.70
2023-05-19T21:40:34.145Z,19.74
2023-05-19T21:43:01.575Z,19.85
2023-05-19T21:45:29.284Z,19.64
2023-05-19T21:47:59.702Z,19.91
2023-05-19T21:50:27.114Z,19.12
2023-05-19T21:52:54.431Z,19.19
2023-05-19T21:55:23.482Z,19.45
2023-05-19T21:57:50.809Z,19.22
2023-05-19T22:00:18.451Z,19.29
2023-05-19T22:02:45.852Z,19.45
2023-05-19T22:05:13.322Z,19.19
2023-05-19T22:07:41.674Z,19.23
2023-05-19T22:10:10.612Z,19.47
2023-05-19T22:12:39.469Z,19.35
2023-05-19T22:15:08.264Z,19.47
2023-05-19T22:17:35.711Z,19.19
2023-05-19T22:20:03.321Z,19.46
2023-05-19T22:22:30.649Z,19.39
2023-05-19T22:24:58.458Z,19.47
2023-05-19T22:27:25.739Z,19.32
2023-05-19T22:29:54.481Z,19.48
2023-05-19T22:32:21.887Z,19.47
2023-05-19T22:34:49.276Z,19.24
2023-05-19T22:37:16.691Z,19.49
2023-05-19T22:39:44.513Z,19.39
2023-05-19T22:42:11.870Z,19.46
2023-05-19T22:44:39.562Z,19.31
2023-05-19T22:47:08.843Z,19.35
2023-05-19T22:49:36.439Z,19.14
2023-05-19T22:52:04.438Z,19.17
2023-05-19T22:54:33.105Z,19.38
2023-05-19T22:57:02.827Z,19.27
2023-05-19T22:59:30.215Z,19.41
2023-05-19T23:01:57.632Z,19.67
2023-05-19T23:04:26.431Z,19.31
2023-05-19T23:06:53.832Z,19.04
2023-05-19T23:09:21.253Z,19.04
2023-05-19T23:11:48.613Z,19.22
2023-05-19T23:14:16.324Z,18.85
2023-05-19T23:16:44.157Z,19.14
2023-05-19T23:19:11.840Z,18.96
2023-05-19T23:21:41.058Z,18.65
2023-05-19T23:24:08.496Z,18.73
2023-05-19T23:26:36.277Z,18.85
2023-05-19T23:29:03.701Z,18.61
2023-05-19T23:31:31.642Z,18.85
2023-05-19T23:34:03.385Z,18.59
2023-05-19T23:36:30.978Z,18.45
2023-05-19T23:39:00.120Z,18.74
2023-05-19T23:41:27.440Z,18.61
2023-05-19T23:43:55.095Z,18.60
2023-05-19T23:46:22.572Z,18.48
2023-05-19T23:48:50.326Z,18.47
2023-05-19T23:51:17.865Z,18.39
2023-05-19T23:53:45.349Z,18.67
2023-05-19T23:56:14.038Z,18.41
2023-05-19T23:58:41.380Z,18.39
